createdAt,value
2019-02-14T00:00:40.131Z,64.28
2019-02-14T00:03:09.661Z,64.71
2019-02-14T00:05:39.202Z,64.80
2019-02-14T00:08:08.658Z,64.99
2019-02-14T00:10:38.134Z,64.99
2019-02-14T00:13:07.640Z,65.00
2019-02-14T00:15:37.188Z,65.03
2019-02-14T00:18:06.682Z,65.22
2019-02-14T00:20:36.148Z,65.08
2019-02-14T00:23:05.715Z,65.06
2019-02-14T00:25:35.306Z,65.39
2019-02-14T00:28:04.779Z,65.35
2019-02-14T00:30:34.356Z,65.36
2019-02-14T00:33:03.855Z,65.37
2019-02-14T00:35:33.333Z,65.30
2019-02-14T00:38:02.813Z,65.41
2019-02-14T00:40:32.284Z,65.40
2019-02-14T00:43:01.777Z,65.63
2019-02-14T00:45:31.249Z,65.57
2019-02-14T00:48:00.726Z,65.72
2019-02-14T00:50:30.249Z,66.06
2019-02-14T00:52:59.735Z,66.47
2019-02-14T00:55:29.202Z,66.86
2019-02-14T00:57:58.707Z,67.35
2019-02-14T01:00:28.198Z,67.61
2019-02-14T01:02:57.700Z,67.74
2019-02-14T01:05:33.464Z,67.78
2019-02-14T01:07:58.400Z,67.92
2019-02-14T01:10:27.905Z,68.03
2019-02-14T01:12:57.376Z,68.57
2019-02-14T01:15:27.555Z,68.74
2019-02-14T01:17:57.072Z,68.87
2019-02-14T01:20:26.543Z,68.86
2019-02-14T01:22:56.016Z,68.88
2019-02-14T01:25:25.488Z,69.09
2019-02-14T01:27:55.018Z,69.03
2019-02-14T01:30:24.491Z,69.04
2019-02-14T01:32:53.975Z,69.25
2019-02-14T01:35:23.455Z,69.41
2019-02-14T01:37:52.980Z,69.72
2019-02-14T01:40:22.462Z,69.88
2019-02-14T01:42:51.955Z,70.09
2019-02-14T01:45:21.847Z,70.47
2019-02-14T01:47:51.315Z,70.92
2019-02-14T01:50:20.786Z,71.21
2019-02-14T01:52:50.270Z,71.58
2019-02-14T01:55:19.729Z,71.67
2019-02-14T01:57:49.189Z,71.98
2019-02-14T02:00:18.662Z,72.42
2019-02-14T02:02:48.222Z,73.31
2019-02-14T02:05:17.685Z,73.79
2019-02-14T02:07:47.135Z,74.07
2019-02-14T02:10:16.712Z,74.36
2019-02-14T02:12:46.249Z,74.46
2019-02-14T02:15:15.727Z,74.60
2019-02-14T02:17:45.212Z,74.68
2019-02-14T02:20:14.867Z,74.93
2019-02-14T02:22:44.322Z,74.86
2019-02-14T02:25:13.782Z,74.85
2019-02-14T02:27:43.313Z,74.84
2019-02-14T02:30:14.341Z,74.75
2019-02-14T02:32:43.840Z,74.92
2019-02-14T02:35:13.319Z,74.58
2019-02-14T02:37:42.796Z,74.81
2019-02-14T02:40:12.317Z,74.71
2019-02-14T02:42:41.800Z,74.65
2019-02-14T02:45:12.646Z,74.69
2019-02-14T02:47:42.120Z,74.87
2019-02-14T02:50:13.614Z,74.94
2019-02-14T02:52:43.096Z,74.98
2019-02-14T02:55:12.544Z,74.93
2019-02-14T02:57:42.021Z,75.24
2019-02-14T03:00:14.267Z,75.37
2019-02-14T03:02:43.726Z,75.68
2019-02-14T03:05:14.512Z,75.94
2019-02-14T03:07:43.991Z,75.98
2019-02-14T03:10:14.251Z,76.44
2019-02-14T03:12:43.721Z,75.82
2019-02-14T03:15:13.661Z,75.65
2019-02-14T03:17:43.107Z,75.72
2019-02-14T03:20:12.812Z,75.57
2019-02-14T03:22:42.290Z,75.43
2019-02-14T03:25:14.415Z,75.31
2019-02-14T03:27:43.907Z,75.20
2019-02-14T03:30:14.260Z,74.98
2019-02-14T03:32:43.727Z,75.24
2019-02-14T03:35:13.217Z,75.06
2019-02-14T03:37:42.725Z,74.93
2019-02-14T03:40:12.402Z,74.92
2019-02-14T03:42:41.872Z,75.22
2019-02-14T03:45:14.063Z,75.22
2019-02-14T03:47:43.532Z,75.05
2019-02-14T03:50:13.128Z,74.96
2019-02-14T03:52:42.612Z,74.98
2019-02-14T03:55:12.128Z,75.02
2019-02-14T03:57:41.670Z,74.47
2019-02-14T04:00:13.696Z,74.35
2019-02-14T04:02:43.162Z,74.19
2019-02-14T04:05:12.761Z,73.76
2019-02-14T04:07:42.211Z,73.62
2019-02-14T04:10:12.621Z,73.52
2019-02-14T04:12:42.091Z,73.58
2019-02-14T04:15:13.667Z,73.42
2019-02-14T04:17:43.172Z,73.67
2019-02-14T04:20:13.426Z,73.49
2019-02-14T04:22:42.897Z,73.41
2019-02-14T04:25:12.676Z,73.17
2019-02-14T04:27:42.147Z,73.18
2019-02-14T04:30:12.115Z,72.59
2019-02-14T04:32:41.692Z,72.40
2019-02-14T04:35:11.973Z,72.31
2019-02-14T04:37:41.470Z,71.88
2019-02-14T04:40:12.256Z,72.05
2019-02-14T04:42:41.809Z,72.14
2019-02-14T04:45:11.667Z,71.92
2019-02-14T04:47:41.207Z,71.89
2019-02-14T04:50:10.742Z,71.78
2019-02-14T04:52:40.245Z,71.66
2019-02-14T04:55:09.707Z,71.64
2019-02-14T04:57:39.227Z,71.22
2019-02-14T05:00:09.945Z,70.96
2019-02-14T05:02:39.541Z,70.69
2019-02-14T05:05:09.363Z,70.63
2019-02-14T05:07:38.842Z,71.19
2019-02-14T05:10:08.345Z,70.98
2019-02-14T05:12:37.824Z,70.53
2019-02-14T05:15:07.409Z,70.36
2019-02-14T05:17:36.874Z,69.82
2019-02-14T05:20:07.345Z,69.04
2019-02-14T05:22:36.849Z,69.12
2019-02-14T05:25:06.776Z,69.38
2019-02-14T05:27:36.351Z,69.17
2019-02-14T05:30:06.425Z,69.42
2019-02-14T05:32:35.949Z,69.28
2019-02-14T05:35:05.755Z,69.34
2019-02-14T05:37:35.197Z,68.69
2019-02-14T05:40:04.951Z,68.94
2019-02-14T05:42:34.413Z,68.99
2019-02-14T05:45:03.998Z,68.27
2019-02-14T05:47:33.503Z,68.08
2019-02-14T05:50:03.125Z,67.74
2019-02-14T05:52:32.603Z,67.63
2019-02-14T05:55:02.053Z,67.74
2019-02-14T05:57:31.537Z,67.79
2019-02-14T06:00:00.981Z,67.63
2019-02-14T06:02:32.154Z,67.99
2019-02-14T06:05:01.844Z,67.22
2019-02-14T06:07:31.332Z,67.21
2019-02-14T06:10:00.814Z,67.22
2019-02-14T06:12:30.284Z,66.59
2019-02-14T06:14:59.816Z,67.11
2019-02-14T06:17:29.321Z,67.15
2019-02-14T06:19:58.827Z,66.42
2019-02-14T06:22:28.346Z,66.84
2019-02-14T06:24:57.854Z,66.80
2019-02-14T06:27:27.359Z,66.76
2019-02-14T06:29:56.865Z,66.86
2019-02-14T06:32:26.346Z,66.92
2019-02-14T06:34:55.856Z,66.93
2019-02-14T06:37:25.318Z,66.98
2019-02-14T06:39:54.825Z,67.14
2019-02-14T06:42:24.322Z,67.09
2019-02-14T06:44:53.836Z,67.27
2019-02-14T06:47:23.328Z,66.92
2019-02-14T06:49:52.811Z,66.82
2019-02-14T06:52:22.316Z,66.46
2019-02-14T06:54:51.822Z,66.53
2019-02-14T06:57:21.331Z,66.12
2019-02-14T06:59:50.823Z,66.16
2019-02-14T07:02:20.327Z,66.05
2019-02-14T07:04:49.834Z,66.31
2019-02-14T07:07:19.378Z,66.14
2019-02-14T07:09:48.877Z,66.58
2019-02-14T07:12:18.394Z,66.93
2019-02-14T07:14:47.896Z,67.14
2019-02-14T07:17:17.438Z,67.31
2019-02-14T07:19:46.925Z,67.25
2019-02-14T07:22:16.502Z,67.87
2019-02-14T07:24:46.061Z,68.04
2019-02-14T07:27:15.638Z,68.14
2019-02-14T07:29:45.185Z,68.22
2019-02-14T07:32:14.667Z,68.29
2019-02-14T07:34:44.203Z,68.18
2019-02-14T07:37:13.707Z,68.09
2019-02-14T07:39:43.203Z,68.13
2019-02-14T07:42:12.740Z,68.14
2019-02-14T07:44:42.237Z,67.69
2019-02-14T07:47:11.779Z,67.08
2019-02-14T07:49:41.288Z,66.04
2019-02-14T07:52:10.798Z,66.45
2019-02-14T07:54:40.249Z,66.46
2019-02-14T07:57:09.731Z,66.46
2019-02-14T07:59:39.245Z,66.20
2019-02-14T08:02:08.748Z,65.00
2019-02-14T08:04:38.238Z,65.49
2019-02-14T08:07:07.791Z,64.84
2019-02-14T08:09:37.263Z,64.42
2019-02-14T08:12:06.749Z,64.57
2019-02-14T08:14:36.270Z,64.22
2019-02-14T08:17:05.842Z,64.40
2019-02-14T08:19:35.331Z,64.20
2019-02-14T08:22:04.870Z,64.43
2019-02-14T08:24:34.646Z,64.27
2019-02-14T08:27:04.157Z,63.85
2019-02-14T08:29:33.683Z,63.25
2019-02-14T08:32:03.150Z,63.34
2019-02-14T08:34:32.692Z,62.40
2019-02-14T08:37:02.196Z,62.90
2019-02-14T08:39:31.698Z,62.87
2019-02-14T08:42:01.207Z,62.57
2019-02-14T08:44:30.705Z,61.90
2019-02-14T08:47:00.181Z,61.17
2019-02-14T08:49:29.678Z,61.27
2019-02-14T08:51:59.292Z,60.88
2019-02-14T08:54:28.761Z,61.06
2019-02-14T08:56:58.281Z,60.92
2019-02-14T08:59:27.790Z,61.07
2019-02-14T09:01:57.646Z,61.08
2019-02-14T09:04:27.193Z,60.77
2019-02-14T09:06:56.664Z,59.82
2019-02-14T09:09:26.150Z,59.30
2019-02-14T09:11:55.649Z,60.03
2019-02-14T09:14:25.234Z,60.59
2019-02-14T09:16:54.671Z,60.38
2019-02-14T09:19:24.155Z,60.60
2019-02-14T09:21:53.627Z,60.90
2019-02-14T09:24:23.127Z,60.60
2019-02-14T09:26:52.630Z,60.46
2019-02-14T09:29:22.114Z,60.77
2019-02-14T09:31:51.629Z,61.08
2019-02-14T09:34:21.152Z,60.84
2019-02-14T09:36:50.657Z,60.83
2019-02-14T09:39:20.138Z,59.48
2019-02-14T09:41:49.610Z,59.74
2019-02-14T09:44:19.126Z,60.14
2019-02-14T09:46:48.623Z,60.48
2019-02-14T09:49:18.150Z,60.41
2019-02-14T09:51:47.598Z,60.69
2019-02-14T09:54:17.066Z,60.03
2019-02-14T09:56:46.552Z,59.97
2019-02-14T09:59:16.074Z,58.78
2019-02-14T10:01:45.555Z,58.98
2019-02-14T10:04:15.032Z,59.27
2019-02-14T10:06:44.519Z,58.60
2019-02-14T10:09:14.090Z,58.52
2019-02-14T10:11:43.587Z,58.58
2019-02-14T10:14:13.077Z,57.76
2019-02-14T10:16:42.603Z,57.38
2019-02-14T10:19:12.099Z,56.78
2019-02-14T10:21:41.550Z,56.54
2019-02-14T10:24:11.036Z,55.75
2019-02-14T10:26:40.535Z,55.90
2019-02-14T10:29:10.032Z,56.09
2019-02-14T10:31:39.505Z,56.87
2019-02-14T10:34:08.998Z,56.52
2019-02-14T10:36:38.505Z,55.73
2019-02-14T10:39:08.066Z,54.97
2019-02-14T10:41:37.596Z,55.23
2019-02-14T10:44:07.065Z,56.29
2019-02-14T10:46:36.543Z,56.92
2019-02-14T10:49:06.048Z,57.28
2019-02-14T10:51:35.505Z,56.60
2019-02-14T10:54:05.008Z,56.36
2019-02-14T10:56:34.523Z,55.81
2019-02-14T10:59:04.146Z,55.58
2019-02-14T11:01:33.714Z,55.43
2019-02-14T11:04:03.212Z,55.40
2019-02-14T11:06:32.696Z,55.79
2019-02-14T11:09:02.171Z,55.52
2019-02-14T11:11:31.716Z,55.69
2019-02-14T11:14:01.190Z,55.90
2019-02-14T11:16:30.679Z,55.40
2019-02-14T11:19:00.176Z,55.60
2019-02-14T11:21:29.642Z,54.73
2019-02-14T11:23:59.187Z,55.68
2019-02-14T11:26:28.732Z,55.95
2019-02-14T11:28:58.190Z,55.55
2019-02-14T11:31:27.666Z,54.93
2019-02-14T11:33:57.193Z,56.44
2019-02-14T11:36:26.769Z,57.76
2019-02-14T11:38:56.258Z,57.31
2019-02-14T11:41:25.744Z,57.93
2019-02-14T11:43:55.255Z,57.23
2019-02-14T11:46:24.781Z,58.69
2019-02-14T11:48:54.313Z,58.91
2019-02-14T11:51:23.775Z,58.26
2019-02-14T11:53:53.255Z,58.44
2019-02-14T11:56:23.288Z,58.72
2019-02-14T11:58:52.807Z,59.04
2019-02-14T12:01:22.326Z,59.11
2019-02-14T12:03:51.832Z,60.19
2019-02-14T12:06:21.327Z,61.00
2019-02-14T12:08:59.758Z,61.47
2019-02-14T12:11:22.231Z,61.91
2019-02-14T12:13:51.735Z,62.07
2019-02-14T12:16:21.239Z,61.55
2019-02-14T12:18:50.771Z,61.50
2019-02-14T12:21:20.274Z,61.71
2019-02-14T12:23:49.779Z,61.87
2019-02-14T12:26:19.336Z,61.18
2019-02-14T12:28:48.860Z,61.50
2019-02-14T12:31:18.749Z,61.39
2019-02-14T12:33:48.386Z,61.73
2019-02-14T12:36:17.924Z,62.27
2019-02-14T12:38:47.431Z,61.93
2019-02-14T12:41:17.012Z,62.05
2019-02-14T12:43:46.534Z,62.12
2019-02-14T12:46:16.039Z,62.34
2019-02-14T12:48:45.670Z,62.03
2019-02-14T12:51:15.181Z,62.27
2019-02-14T12:53:44.722Z,63.17
2019-02-14T12:56:14.708Z,63.35
2019-02-14T12:58:44.185Z,63.32
2019-02-14T13:01:13.705Z,63.32
2019-02-14T13:03:43.816Z,63.89
2019-02-14T13:06:15.198Z,64.34
2019-02-14T13:08:44.753Z,64.57
2019-02-14T13:11:14.248Z,64.63
2019-02-14T13:13:43.820Z,64.70
2019-02-14T13:16:13.700Z,64.75
2019-02-14T13:18:43.217Z,64.65
2019-02-14T13:21:12.785Z,64.75
2019-02-14T13:23:42.342Z,64.62
2019-02-14T13:26:12.060Z,64.80
2019-02-14T13:28:46.298Z,64.95
2019-02-14T13:31:15.999Z,64.97
2019-02-14T13:33:45.747Z,64.49
2019-02-14T13:36:15.245Z,64.54
2019-02-14T13:38:44.877Z,64.46
2019-02-14T13:41:14.480Z,64.68
2019-02-14T13:43:44.119Z,65.59
2019-02-14T13:46:13.729Z,65.68
2019-02-14T13:48:43.258Z,65.52
2019-02-14T13:51:12.868Z,65.45
2019-02-14T13:53:42.434Z,65.55
2019-02-14T13:56:12.010Z,66.17
2019-02-14T13:58:41.609Z,66.29
2019-02-14T14:01:11.160Z,66.70
2019-02-14T14:03:43.495Z,68.16
2019-02-14T14:06:13.002Z,68.64
2019-02-14T14:08:42.554Z,68.44
2019-02-14T14:11:12.057Z,68.00
2019-02-14T14:13:41.673Z,67.90
2019-02-14T14:16:11.257Z,67.77
2019-02-14T14:18:40.806Z,67.83
2019-02-14T14:21:10.368Z,67.82
2019-02-14T14:23:40.105Z,67.81
2019-02-14T14:26:09.569Z,68.04
2019-02-14T14:28:39.184Z,67.85
2019-02-14T14:31:08.839Z,67.78
2019-02-14T14:33:38.407Z,67.69
2019-02-14T14:36:08.060Z,67.70
2019-02-14T14:38:37.598Z,67.92
2019-02-14T14:41:07.148Z,68.12
2019-02-14T14:43:46.930Z,67.98
2019-02-14T14:46:28.903Z,68.05
2019-02-14T14:48:58.631Z,68.76
2019-02-14T14:51:28.218Z,68.76
2019-02-14T14:53:57.736Z,68.66
2019-02-14T14:56:27.382Z,68.72
2019-02-14T14:58:56.967Z,68.62
2019-02-14T15:01:26.540Z,68.68
2019-02-14T15:03:56.160Z,68.55
2019-02-14T15:06:25.813Z,68.67
2019-02-14T15:08:55.408Z,68.42
2019-02-14T15:11:24.979Z,68.58
2019-02-14T15:13:54.514Z,68.82
2019-02-14T15:16:24.181Z,68.71
2019-02-14T15:18:53.678Z,68.62
2019-02-14T15:21:23.327Z,68.54
2019-02-14T15:23:52.906Z,68.82
2019-02-14T15:26:22.555Z,69.30
2019-02-14T15:28:52.114Z,69.90
2019-02-14T15:31:23.506Z,70.37
2019-02-14T15:33:53.136Z,70.71
2019-02-14T15:36:24.336Z,70.89
2019-02-14T15:38:54.022Z,70.70
2019-02-14T15:41:23.587Z,70.24
2019-02-14T15:43:53.298Z,70.43
2019-02-14T15:46:23.018Z,70.80
2019-02-14T15:48:55.623Z,71.34
2019-02-14T15:51:25.239Z,71.65
2019-02-14T15:53:54.842Z,71.41
2019-02-14T15:56:24.377Z,71.44
2019-02-14T15:58:56.731Z,71.31
2019-02-14T16:01:25.215Z,71.17
2019-02-14T16:03:54.756Z,71.06
2019-02-14T16:06:26.056Z,70.79
2019-02-14T16:08:55.574Z,70.79
2019-02-14T16:11:25.319Z,70.92
2019-02-14T16:13:56.986Z,70.88
2019-02-14T16:16:26.087Z,70.89
2019-02-14T16:18:55.877Z,70.71
2019-02-14T16:21:27.307Z,70.70
2019-02-14T16:23:56.793Z,71.24
2019-02-14T16:26:26.322Z,71.79
2019-02-14T16:28:55.894Z,71.86
2019-02-14T16:31:25.450Z,71.87
2019-02-14T16:33:54.899Z,71.77
2019-02-14T16:36:24.440Z,71.95
2019-02-14T16:38:53.958Z,71.93
2019-02-14T16:41:23.476Z,72.34
2019-02-14T16:43:53.100Z,72.42
2019-02-14T16:46:22.697Z,72.66
2019-02-14T16:48:52.306Z,72.90
2019-02-14T16:51:21.873Z,72.92
2019-02-14T16:53:51.658Z,73.18
2019-02-14T16:56:21.295Z,73.41
2019-02-14T16:58:50.875Z,73.51
2019-02-14T17:01:20.613Z,73.34
2019-02-14T17:03:50.189Z,73.25
2019-02-14T17:06:19.728Z,73.34
2019-02-14T17:08:49.374Z,73.45
2019-02-14T17:11:18.990Z,73.86
2019-02-14T17:13:48.571Z,74.17
2019-02-14T17:16:18.722Z,74.08
2019-02-14T17:18:48.247Z,74.13
2019-02-14T17:21:17.823Z,74.26
2019-02-14T17:23:47.387Z,74.44
2019-02-14T17:26:17.078Z,74.70
2019-02-14T17:28:46.612Z,74.58
2019-02-14T17:31:16.333Z,74.67
2019-02-14T17:33:45.906Z,74.62
2019-02-14T17:36:15.539Z,74.60
2019-02-14T17:38:45.091Z,74.49
2019-02-14T17:41:14.688Z,74.47
2019-02-14T17:43:44.311Z,74.82
2019-02-14T17:46:14.048Z,74.86
2019-02-14T17:48:43.799Z,74.84
2019-02-14T17:51:13.365Z,74.84
2019-02-14T17:53:42.912Z,74.89
2019-02-14T17:56:12.564Z,75.17
2019-02-14T17:58:42.123Z,75.36
2019-02-14T18:01:11.680Z,75.41
2019-02-14T18:03:41.339Z,75.51
2019-02-14T18:06:10.959Z,75.46
2019-02-14T18:08:40.493Z,76.08
2019-02-14T18:11:10.457Z,76.14
2019-02-14T18:13:39.997Z,76.19
2019-02-14T18:16:09.505Z,76.50
2019-02-14T18:18:39.107Z,76.42
2019-02-14T18:21:08.651Z,76.64
2019-02-14T18:23:38.514Z,76.27
2019-02-14T18:26:08.161Z,75.93
2019-02-14T18:28:37.757Z,75.79
2019-02-14T18:31:08.111Z,75.61
2019-02-14T18:33:40.442Z,75.46
2019-02-14T18:36:09.946Z,75.25
2019-02-14T18:38:39.753Z,75.20
2019-02-14T18:41:09.322Z,75.22
2019-02-14T18:43:38.994Z,75.14
2019-02-14T18:46:08.614Z,74.98
2019-02-14T18:48:38.169Z,75.14
2019-02-14T18:51:07.807Z,75.10
2019-02-14T18:53:37.357Z,75.29
2019-02-14T18:56:06.885Z,75.31
2019-02-14T18:58:36.513Z,75.21
2019-02-14T19:01:06.199Z,75.22
2019-02-14T19:03:35.739Z,75.27
2019-02-14T19:06:05.346Z,75.23
2019-02-14T19:08:35.320Z,75.06
2019-02-14T19:11:14.728Z,75.11
2019-02-14T19:13:36.084Z,75.12
2019-02-14T19:16:05.687Z,74.97
2019-02-14T19:18:36.236Z,74.93
2019-02-14T19:21:05.725Z,74.85
2019-02-14T19:23:35.572Z,74.87
2019-02-14T19:26:05.178Z,74.93
2019-02-14T19:28:35.112Z,75.04
2019-02-14T19:31:04.813Z,74.81
2019-02-14T19:33:34.317Z,74.45
2019-02-14T19:36:03.933Z,74.56
2019-02-14T19:38:33.509Z,74.27
2019-02-14T19:41:03.507Z,74.47
2019-02-14T19:43:33.083Z,74.32
2019-02-14T19:46:06.933Z,74.24
2019-02-14T19:48:36.494Z,74.33
2019-02-14T19:51:06.317Z,74.29
2019-02-14T19:53:35.816Z,74.24
2019-02-14T19:56:05.374Z,74.45
2019-02-14T19:58:34.964Z,74.63
2019-02-14T20:01:04.699Z,74.64
2019-02-14T20:03:34.322Z,75.09
2019-02-14T20:06:03.856Z,75.25
2019-02-14T20:08:33.680Z,75.19
2019-02-14T20:11:03.390Z,75.48
2019-02-14T20:13:32.958Z,75.73
2019-02-14T20:16:04.888Z,75.81
2019-02-14T20:18:34.691Z,75.67
2019-02-14T20:21:04.205Z,75.49
2019-02-14T20:23:33.755Z,75.43
2019-02-14T20:26:03.324Z,75.23
2019-02-14T20:28:32.904Z,74.78
2019-02-14T20:31:02.479Z,74.67
2019-02-14T20:33:32.059Z,74.93
2019-02-14T20:36:01.695Z,74.93
2019-02-14T20:38:31.205Z,74.98
2019-02-14T20:41:00.846Z,75.28
2019-02-14T20:43:30.428Z,75.74
2019-02-14T20:46:00.380Z,75.60
2019-02-14T20:48:29.980Z,75.51
2019-02-14T20:50:59.514Z,75.79
2019-02-14T20:53:30.138Z,75.69
2019-02-14T20:56:00.108Z,75.56
2019-02-14T20:58:29.758Z,75.30
2019-02-14T21:00:59.272Z,75.35
2019-02-14T21:03:28.857Z,75.25
2019-02-14T21:05:58.382Z,75.40
2019-02-14T21:08:28.040Z,75.44
2019-02-14T21:10:57.649Z,75.42
2019-02-14T21:13:27.190Z,75.46
2019-02-14T21:15:56.812Z,75.58
2019-02-14T21:18:26.295Z,75.49
2019-02-14T21:20:55.836Z,75.27
2019-02-14T21:23:25.370Z,75.50
2019-02-14T21:25:55.196Z,74.96
2019-02-14T21:28:24.703Z,74.64
2019-02-14T21:30:54.231Z,74.25
2019-02-14T21:33:23.734Z,74.02
2019-02-14T21:35:53.260Z,73.89
2019-02-14T21:38:22.763Z,73.72
2019-02-14T21:40:52.334Z,73.70
2019-02-14T21:43:21.851Z,73.40
2019-02-14T21:45:51.432Z,73.45
2019-02-14T21:48:20.942Z,73.67
2019-02-14T21:50:50.622Z,73.71
2019-02-14T21:53:20.204Z,73.57
2019-02-14T21:55:49.998Z,73.19
2019-02-14T21:58:19.849Z,73.12
2019-02-14T22:00:49.880Z,72.94
2019-02-14T22:03:19.535Z,72.86
2019-02-14T22:05:49.196Z,72.93
2019-02-14T22:08:18.731Z,73.13
2019-02-14T22:10:48.245Z,73.08
2019-02-14T22:13:17.808Z,73.37
2019-02-14T22:15:47.340Z,73.49
2019-02-14T22:18:16.910Z,73.72
2019-02-14T22:20:46.866Z,73.94
2019-02-14T22:23:16.680Z,74.06
2019-02-14T22:25:46.219Z,74.62
2019-02-14T22:28:15.769Z,74.86
2019-02-14T22:30:45.324Z,75.04
2019-02-14T22:33:14.877Z,75.31
2019-02-14T22:35:45.489Z,75.31
2019-02-14T22:38:14.993Z,74.98
2019-02-14T22:40:44.507Z,75.11
2019-02-14T22:43:14.061Z,75.12
2019-02-14T22:45:43.559Z,74.98
2019-02-14T22:48:13.094Z,74.78
2019-02-14T22:50:42.726Z,74.61
2019-02-14T22:53:12.291Z,74.80
2019-02-14T22:55:41.846Z,74.63
2019-02-14T22:58:11.374Z,74.64
2019-02-14T23:00:48.114Z,74.56
2019-02-14T23:03:17.645Z,74.49
2019-02-14T23:05:47.174Z,74.38
2019-02-14T23:08:16.744Z,73.97
2019-02-14T23:10:46.291Z,73.83
2019-02-14T23:13:15.846Z,73.55
2019-02-14T23:15:45.494Z,73.56
2019-02-14T23:18:14.997Z,73.15
2019-02-14T23:20:44.642Z,72.69
2019-02-14T23:23:14.190Z,72.73
2019-02-14T23:25:43.715Z,72.56
2019-02-14T23:28:13.203Z,72.41
2019-02-14T23:30:42.751Z,72.42
2019-02-14T23:33:12.226Z,72.29
2019-02-14T23:35:41.755Z,72.14
2019-02-14T23:38:11.294Z,72.07
2019-02-14T23:40:40.913Z,71.91
2019-02-14T23:43:10.503Z,71.67
2019-02-14T23:45:40.087Z,71.50
2019-02-14T23:48:09.717Z,71.43
2019-02-14T23:50:39.389Z,71.59
2019-02-14T23:53:09.043Z,71.47
2019-02-14T23:55:38.499Z,71.37
2019-02-14T23:58:08.048Z,71.40
